createdAt,value
2022-07-30T00:00:25.912Z,3.30
2022-07-30T00:03:27.795Z,3.67
2022-07-30T00:06:29.345Z,3.38
2022-07-30T00:09:33.289Z,3.40
2022-07-30T00:12:36.048Z,3.50
2022-07-30T00:15:37.616Z,3.70
2022-07-30T00:18:39.169Z,3.70
2022-07-30T00:21:42.107Z,3.42
2022-07-30T00:24:44.361Z,3.80
2022-07-30T00:27:45.845Z,3.60
2022-07-30T00:30:47.447Z,3.78
2022-07-30T00:33:54.296Z,3.70
2022-07-30T00:36:55.800Z,3.70
2022-07-30T00:39:57.543Z,3.85
2022-07-30T00:42:59.046Z,3.70
2022-07-30T00:46:00.757Z,3.67
2022-07-30T00:49:02.276Z,3.90
2022-07-30T00:52:04.126Z,3.75
2022-07-30T00:58:08.290Z,3.75
2022-07-30T01:01:10.892Z,3.70
2022-07-30T01:04:12.632Z,4.03
2022-07-30T01:07:14.179Z,3.85
2022-07-30T01:10:16.070Z,4.10
2022-07-30T01:16:19.022Z,4.40
2022-07-30T01:19:44.218Z,4.38
2022-07-30T01:22:50.246Z,4.45
2022-07-30T01:25:58.509Z,4.32
2022-07-30T01:29:01.492Z,4.70
2022-07-30T01:32:06.183Z,4.40
2022-07-30T01:35:10.765Z,4.57
2022-07-30T01:38:13.947Z,4.82
2022-07-30T01:41:17.872Z,4.60
2022-07-30T01:44:23.879Z,4.45
2022-07-30T01:47:28.051Z,4.70
2022-07-30T01:50:31.149Z,4.35
2022-07-30T01:53:37.132Z,4.53
2022-07-30T01:56:40.973Z,5.30
2022-07-30T01:59:45.835Z,4.78
2022-07-30T02:02:47.375Z,4.72
2022-07-30T02:05:55.815Z,5.20
2022-07-30T02:09:01.490Z,4.90
2022-07-30T02:12:29.828Z,5.18
2022-07-30T02:15:41.004Z,4.93
2022-07-30T02:18:43.490Z,5.28
2022-07-30T02:22:00.949Z,5.00
2022-07-30T02:25:07.327Z,5.20
2022-07-30T02:28:12.930Z,5.10
2022-07-30T02:31:19.374Z,5.70
2022-07-30T02:34:24.035Z,5.32
2022-07-30T02:37:42.830Z,5.10
2022-07-30T02:40:46.602Z,5.10
2022-07-30T02:43:49.996Z,5.55
2022-07-30T02:46:54.404Z,5.53
2022-07-30T02:50:07.761Z,5.50
2022-07-30T02:53:11.918Z,5.28
2022-07-30T02:56:17.284Z,5.70
2022-07-30T02:59:21.220Z,5.50
2022-07-30T03:02:29.135Z,5.18
2022-07-30T03:05:32.027Z,5.35
2022-07-30T03:08:35.505Z,5.43
2022-07-30T03:11:37.285Z,5.50
2022-07-30T03:14:39.591Z,5.53
2022-07-30T03:17:46.273Z,5.45
2022-07-30T03:20:51.604Z,5.90
2022-07-30T03:23:55.504Z,5.40
2022-07-30T03:26:58.667Z,5.55
2022-07-30T03:30:02.476Z,5.75
2022-07-30T03:33:05.919Z,5.55
2022-07-30T03:36:09.905Z,5.75
2022-07-30T03:39:12.381Z,5.63
2022-07-30T03:42:16.494Z,6.53
2022-07-30T03:45:19.925Z,5.97
2022-07-30T03:48:23.001Z,5.70
2022-07-30T03:51:25.002Z,5.68
2022-07-30T03:54:28.156Z,5.40
2022-07-30T03:57:49.658Z,5.53
2022-07-30T04:00:52.815Z,5.72
2022-07-30T04:03:54.568Z,5.72
2022-07-30T04:06:58.519Z,5.53
2022-07-30T04:10:00.069Z,5.82
2022-07-30T04:13:27.053Z,5.72
2022-07-30T04:16:58.953Z,5.90
2022-07-30T04:20:20.496Z,5.95
2022-07-30T04:23:22.559Z,5.80
2022-07-30T04:26:24.598Z,6.10
2022-07-30T04:29:27.220Z,5.95
2022-07-30T04:32:30.369Z,6.00
2022-07-30T04:35:50.953Z,5.68
2022-07-30T04:39:01.081Z,6.20
2022-07-30T04:42:02.624Z,6.25
2022-07-30T04:45:11.722Z,6.20
2022-07-30T04:48:28.339Z,5.70
2022-07-30T04:51:34.064Z,5.95
2022-07-30T04:54:42.104Z,5.85
2022-07-30T04:57:44.919Z,5.80
2022-07-30T05:00:47.163Z,5.72
2022-07-30T05:03:53.686Z,5.68
2022-07-30T05:06:56.970Z,6.10
2022-07-30T05:09:59.507Z,5.75
2022-07-30T05:13:01.463Z,5.78
2022-07-30T05:16:04.284Z,5.55
2022-07-30T05:22:10.936Z,6.30
2022-07-30T05:28:18.852Z,6.40
2022-07-30T05:31:22.251Z,5.95
2022-07-30T05:34:30.779Z,5.75
2022-07-30T05:37:33.545Z,5.95
2022-07-30T05:40:35.495Z,5.88
2022-07-30T05:43:55.679Z,6.18
2022-07-30T05:46:57.833Z,5.65
2022-07-30T05:50:04.514Z,6.10
2022-07-30T05:53:06.227Z,5.80
2022-07-30T05:56:37.572Z,5.90
2022-07-30T05:59:47.461Z,6.05
2022-07-30T06:03:27.528Z,6.25
2022-07-30T06:06:51.877Z,6.10
2022-07-30T06:09:53.969Z,6.13
2022-07-30T06:12:55.680Z,6.10
2022-07-30T06:15:57.280Z,6.30
2022-07-30T06:18:58.889Z,6.30
2022-07-30T06:22:14.833Z,6.13
2022-07-30T06:25:21.824Z,5.85
2022-07-30T06:28:39.556Z,6.32
2022-07-30T06:32:05.015Z,6.10
2022-07-30T06:35:07.167Z,5.88
2022-07-30T06:38:08.646Z,6.00
2022-07-30T06:41:23.528Z,6.05
2022-07-30T06:44:27.506Z,6.13
2022-07-30T06:47:44.377Z,5.60
2022-07-30T06:50:45.959Z,6.38
2022-07-30T06:53:48.235Z,6.20
2022-07-30T06:56:49.812Z,5.82
2022-07-30T06:59:56.179Z,6.15
2022-07-30T07:03:12.085Z,6.30
2022-07-30T07:06:13.871Z,6.07
2022-07-30T07:09:16.656Z,6.00
2022-07-30T07:12:39.306Z,5.75
2022-07-30T07:15:41.211Z,5.40
2022-07-30T07:18:48.539Z,5.63
2022-07-30T07:21:50.637Z,6.00
2022-07-30T07:24:52.257Z,5.70
2022-07-30T07:28:12.460Z,6.32
2022-07-30T07:32:02.589Z,5.70
2022-07-30T07:34:36.871Z,5.95
2022-07-30T07:37:38.409Z,5.80
2022-07-30T07:40:41.495Z,5.90
2022-07-30T07:43:43.838Z,5.80
2022-07-30T07:46:50.443Z,6.45
2022-07-30T07:49:55.573Z,5.55
2022-07-30T07:52:57.414Z,5.90
2022-07-30T07:55:59.718Z,6.07
2022-07-30T08:02:04.378Z,6.13
2022-07-30T08:05:24.025Z,6.10
2022-07-30T08:08:37.092Z,6.38
2022-07-30T08:12:13.713Z,5.90
2022-07-30T08:15:33.950Z,6.18
2022-07-30T08:18:53.852Z,5.80
2022-07-30T08:22:10.002Z,6.05
2022-07-30T08:25:11.653Z,6.00
2022-07-30T08:28:35.699Z,5.82
2022-07-30T08:31:37.891Z,5.40
2022-07-30T08:34:39.428Z,5.95
2022-07-30T08:37:42.175Z,5.65
2022-07-30T08:40:43.932Z,5.78
2022-07-30T08:43:51.333Z,5.30
2022-07-30T08:46:57.180Z,5.25
2022-07-30T08:50:24.983Z,5.03
2022-07-30T08:53:42.175Z,4.78
2022-07-30T09:03:03.700Z,4.82
2022-07-30T09:06:06.192Z,4.22
2022-07-30T09:09:09.153Z,4.15
2022-07-30T09:12:37.744Z,4.05
2022-07-30T09:15:40.244Z,3.90
2022-07-30T09:18:44.505Z,3.80
2022-07-30T09:22:01.578Z,4.05
2022-07-30T09:25:41.742Z,4.13
2022-07-30T09:29:19.432Z,4.18
2022-07-30T09:32:49.574Z,3.90
2022-07-30T09:36:13.878Z,4.35
2022-07-30T09:39:59.043Z,3.95
2022-07-30T09:43:42.224Z,4.30
2022-07-30T09:46:51.571Z,3.88
2022-07-30T09:50:29.467Z,3.90
2022-07-30T09:53:33.766Z,4.10
2022-07-30T09:56:35.527Z,3.70
2022-07-30T10:02:40.089Z,4.00
2022-07-30T10:06:17.135Z,3.78
2022-07-30T10:09:37.328Z,3.53
2022-07-30T10:12:40.406Z,3.85
2022-07-30T10:15:44.849Z,3.90
2022-07-30T10:18:47.103Z,3.42
2022-07-30T10:22:09.820Z,3.63
2022-07-30T10:25:48.859Z,3.00
2022-07-30T10:29:33.858Z,3.40
2022-07-30T10:32:37.777Z,3.10
2022-07-30T10:35:44.011Z,3.05
2022-07-30T10:38:52.845Z,2.88
2022-07-30T10:42:13.499Z,3.20
2022-07-30T10:45:52.792Z,3.17
2022-07-30T10:48:55.570Z,3.30
2022-07-30T10:52:00.127Z,3.15
2022-07-30T10:55:01.605Z,3.15
2022-07-30T11:01:17.891Z,2.95
2022-07-30T11:04:20.490Z,3.83
2022-07-30T11:07:22.240Z,3.20
2022-07-30T11:10:37.400Z,3.20
2022-07-30T11:13:58.688Z,4.07
2022-07-30T11:17:01.040Z,6.22
2022-07-30T11:20:02.546Z,3.58
2022-07-30T11:23:31.446Z,3.60
2022-07-30T11:26:41.677Z,3.45
2022-07-30T11:29:50.761Z,3.22
2022-07-30T11:32:54.630Z,3.70
2022-07-30T11:36:06.558Z,3.65
2022-07-30T11:39:08.087Z,3.60
2022-07-30T11:42:30.873Z,3.50
2022-07-30T11:45:33.078Z,3.53
2022-07-30T11:48:36.350Z,3.40
2022-07-30T11:51:43.047Z,3.42
2022-07-30T11:54:55.243Z,3.17
2022-07-30T11:57:57.655Z,4.75
2022-07-30T12:01:01.907Z,3.85
2022-07-30T12:04:08.871Z,7.82
2022-07-30T12:07:10.463Z,3.30
2022-07-30T12:10:26.866Z,3.20
2022-07-30T12:13:45.806Z,2.70
2022-07-30T12:16:52.894Z,2.85
2022-07-30T12:19:54.384Z,3.28
2022-07-30T12:22:56.965Z,3.00
2022-07-30T12:25:58.701Z,2.70
2022-07-30T12:29:10.478Z,3.03
2022-07-30T12:32:12.108Z,3.00
2022-07-30T12:35:13.750Z,2.90
2022-07-30T12:38:16.340Z,3.05
2022-07-30T12:41:17.801Z,3.10
2022-07-30T12:44:36.864Z,2.72
2022-07-30T12:47:38.657Z,2.70
2022-07-30T12:50:40.114Z,2.90
2022-07-30T12:53:41.726Z,2.78
2022-07-30T12:57:00.154Z,2.65
2022-07-30T13:00:06.977Z,2.80
2022-07-30T13:03:27.501Z,3.00
2022-07-30T13:06:29.051Z,2.88
2022-07-30T13:09:30.589Z,2.60
2022-07-30T13:12:32.097Z,3.00
2022-07-30T13:15:33.550Z,2.80
2022-07-30T13:18:36.402Z,2.90
2022-07-30T13:21:38.605Z,2.65
2022-07-30T13:24:40.517Z,3.05
2022-07-30T13:27:42.055Z,3.00
2022-07-30T13:30:44.017Z,5.22
2022-07-30T13:33:45.515Z,2.50
2022-07-30T13:36:46.976Z,2.72
2022-07-30T13:39:49.006Z,2.53
2022-07-30T13:42:50.582Z,2.53
2022-07-30T13:45:53.091Z,2.45
2022-07-30T13:48:55.241Z,2.72
2022-07-30T13:51:57.004Z,2.53
2022-07-30T13:54:58.658Z,2.17
2022-07-30T13:58:00.600Z,2.20
2022-07-30T14:01:02.179Z,2.20
2022-07-30T14:04:03.888Z,6.22
2022-07-30T14:07:05.626Z,2.67
2022-07-30T14:10:08.020Z,2.38
2022-07-30T14:13:10.391Z,2.30
2022-07-30T14:16:43.742Z,2.53
2022-07-30T14:19:40.574Z,2.28
2022-07-30T14:22:42.402Z,2.53
2022-07-30T14:25:44.496Z,2.40
2022-07-30T14:28:46.044Z,2.20
2022-07-30T14:31:47.493Z,2.40
2022-07-30T14:34:49.380Z,2.10
2022-07-30T14:37:51.311Z,3.80
2022-07-30T14:40:52.872Z,2.03
2022-07-30T14:43:54.306Z,4.32
2022-07-30T14:46:55.768Z,3.58
2022-07-30T14:49:57.298Z,3.22
2022-07-30T14:52:58.944Z,2.20
2022-07-30T14:56:00.482Z,3.67
2022-07-30T14:59:01.925Z,4.82
2022-07-30T15:02:03.620Z,5.55
2022-07-30T15:05:05.991Z,2.22
2022-07-30T15:08:07.698Z,2.05
2022-07-30T15:11:09.580Z,3.53
2022-07-30T15:14:12.212Z,5.05
2022-07-30T15:17:14.086Z,6.20
2022-07-30T15:20:15.597Z,3.13
2022-07-30T15:23:17.048Z,2.50
2022-07-30T15:26:18.547Z,1.98
2022-07-30T15:29:20.176Z,2.00
2022-07-30T15:32:21.661Z,2.08
2022-07-30T15:35:23.239Z,2.10
2022-07-30T15:38:24.816Z,2.35
2022-07-30T15:41:26.346Z,2.33
2022-07-30T15:44:28.064Z,2.03
2022-07-30T15:47:29.793Z,2.10
2022-07-30T15:50:31.452Z,2.40
2022-07-30T15:53:33.795Z,2.30
2022-07-30T15:56:35.245Z,2.10
2022-07-30T15:59:36.906Z,1.98
2022-07-30T16:02:39.153Z,2.10
2022-07-30T16:05:51.453Z,2.15
2022-07-30T16:08:54.255Z,2.20
2022-07-30T16:11:56.955Z,2.10
2022-07-30T16:14:59.674Z,2.05
2022-07-30T16:18:04.133Z,2.20
2022-07-30T16:21:05.956Z,2.17
2022-07-30T16:24:07.651Z,2.13
2022-07-30T16:27:09.161Z,2.20
2022-07-30T16:30:11.025Z,2.28
2022-07-30T16:33:12.484Z,2.20
2022-07-30T16:36:14.311Z,2.08
2022-07-30T16:39:16.122Z,3.60
2022-07-30T16:42:17.591Z,2.17
2022-07-30T16:45:19.218Z,2.33
2022-07-30T16:48:20.670Z,1.98
2022-07-30T16:51:22.193Z,2.28
2022-07-30T16:54:23.900Z,2.30
2022-07-30T16:57:25.345Z,2.38
2022-07-30T17:00:27.071Z,2.58
2022-07-30T17:03:28.559Z,2.10
2022-07-30T17:06:30.095Z,2.20
2022-07-30T17:09:36.418Z,2.30
2022-07-30T17:12:40.131Z,2.00
2022-07-30T17:15:41.705Z,2.00
2022-07-30T17:18:43.226Z,2.00
2022-07-30T17:21:44.667Z,2.00
2022-07-30T17:24:46.237Z,2.00
2022-07-30T17:27:47.799Z,2.42
2022-07-30T17:30:49.308Z,2.05
2022-07-30T17:33:50.845Z,2.00
2022-07-30T17:36:53.174Z,2.03
2022-07-30T17:40:28.227Z,2.08
2022-07-30T17:43:16.708Z,2.25
2022-07-30T17:46:18.228Z,1.88
2022-07-30T17:49:19.748Z,1.90
2022-07-30T17:52:24.615Z,1.90
2022-07-30T17:55:28.275Z,1.92
2022-07-30T17:58:29.738Z,1.83
2022-07-30T18:01:33.830Z,1.67
2022-07-30T18:04:35.746Z,1.63
2022-07-30T18:07:37.373Z,1.63
2022-07-30T18:10:38.968Z,1.80
2022-07-30T18:13:40.745Z,1.85
2022-07-30T18:16:42.297Z,2.08
2022-07-30T18:19:43.831Z,1.92
2022-07-30T18:22:45.597Z,2.05
2022-07-30T18:25:53.206Z,1.80
2022-07-30T18:28:55.971Z,2.17
2022-07-30T18:34:58.775Z,2.15
2022-07-30T18:41:02.884Z,1.98
2022-07-30T18:44:04.554Z,2.15
2022-07-30T18:47:06.036Z,2.00
2022-07-30T18:50:08.457Z,1.90
2022-07-30T18:53:15.208Z,2.20
2022-07-30T18:56:17.406Z,1.75
2022-07-30T19:02:20.255Z,2.20
2022-07-30T19:11:24.859Z,1.92
2022-07-30T19:14:26.324Z,1.90
2022-07-30T19:20:50.541Z,2.10
2022-07-30T19:23:52.096Z,2.30
2022-07-30T19:26:53.891Z,2.10
2022-07-30T19:29:55.343Z,1.88
2022-07-30T19:36:04.363Z,2.35
2022-07-30T19:39:06.826Z,2.10
2022-07-30T19:42:09.119Z,2.00
2022-07-30T19:45:12.078Z,2.10
2022-07-30T19:48:28.563Z,2.33
2022-07-30T19:52:11.378Z,2.83
2022-07-30T19:54:53.074Z,3.00
2022-07-30T20:03:59.047Z,2.83
2022-07-30T20:07:03.422Z,2.72
2022-07-30T20:10:07.629Z,2.80
2022-07-30T20:13:09.051Z,3.15
2022-07-30T20:16:15.772Z,3.13
2022-07-30T20:19:17.314Z,3.17
2022-07-30T20:25:21.821Z,3.22
2022-07-30T20:28:23.744Z,3.35
2022-07-30T20:31:27.536Z,3.80
2022-07-30T20:34:30.728Z,3.20
2022-07-30T20:37:54.918Z,3.60
2022-07-30T20:40:56.012Z,3.40
2022-07-30T20:43:57.487Z,3.47
2022-07-30T20:46:59.788Z,3.30
2022-07-30T20:50:11.323Z,3.45
2022-07-30T20:53:15.868Z,3.58
2022-07-30T20:59:23.677Z,3.83
2022-07-30T21:02:26.927Z,5.40
2022-07-30T21:05:31.338Z,4.55
2022-07-30T21:08:32.891Z,3.45
2022-07-30T21:11:35.944Z,3.50
2022-07-30T21:14:37.722Z,2.90
2022-07-30T21:17:39.769Z,3.53
2022-07-30T21:23:48.926Z,3.45
2022-07-30T21:26:51.440Z,3.28
2022-07-30T21:29:52.932Z,2.92
2022-07-30T21:32:55.127Z,3.92
2022-07-30T21:35:56.572Z,3.03
2022-07-30T21:38:59.707Z,3.20
2022-07-30T21:42:04.951Z,2.88
2022-07-30T21:45:07.818Z,2.75
2022-07-30T21:48:10.867Z,3.03
2022-07-30T21:51:13.560Z,3.28
2022-07-30T21:54:28.430Z,3.40
2022-07-30T21:57:31.434Z,3.22
2022-07-30T22:00:48.383Z,3.60
2022-07-30T22:04:03.275Z,3.28
2022-07-30T22:07:08.064Z,3.55
2022-07-30T22:10:09.774Z,3.70
2022-07-30T22:13:14.113Z,3.50
2022-07-30T22:16:18.197Z,3.38
2022-07-30T22:19:21.718Z,3.20
2022-07-30T22:22:27.072Z,3.20
2022-07-30T22:25:39.637Z,3.00
2022-07-30T22:28:45.631Z,2.90
2022-07-30T22:31:53.996Z,3.10
2022-07-30T22:34:55.780Z,3.10
2022-07-30T22:37:58.943Z,2.65
2022-07-30T22:41:01.448Z,2.60
2022-07-30T22:44:31.558Z,2.78
2022-07-30T22:47:54.015Z,2.70
2022-07-30T22:50:55.970Z,2.88
2022-07-30T22:54:11.953Z,3.10
2022-07-30T22:57:14.499Z,3.25
2022-07-30T23:00:27.328Z,2.90
2022-07-30T23:03:29.860Z,2.97
2022-07-30T23:06:31.338Z,3.13
2022-07-30T23:09:49.250Z,3.10
2022-07-30T23:12:53.811Z,3.30
2022-07-30T23:15:55.411Z,3.10
2022-07-30T23:18:56.871Z,3.00
2022-07-30T23:21:58.379Z,2.85
2022-07-30T23:24:59.828Z,3.10
2022-07-30T23:28:01.273Z,3.03
2022-07-30T23:31:03.780Z,2.88
2022-07-30T23:34:06.364Z,2.97
2022-07-30T23:37:10.676Z,3.00
2022-07-30T23:40:17.282Z,3.08
2022-07-30T23:43:18.939Z,3.00
2022-07-30T23:49:24.079Z,3.30
2022-07-30T23:52:26.371Z,3.22
2022-07-30T23:55:29.273Z,2.97
2022-07-30T23:58:30.720Z,3.20
